sensor_id;sensor_type;location;lat;lon;timestamp;pressure;altitude;pressure_sealevel;temperature;humidity
73566;BME280;61846;52.970;-3.168;2023-05-23T00:00:13;101816.73;;;10.18;56.17
73566;BME280;61846;52.970;-3.168;2023-05-23T00:02:38;101822.31;;;10.72;54.66
73566;BME280;61846;52.970;-3.168;2023-05-23T00:05:04;101822.37;;;10.76;54.51
73566;BME280;61846;52.970;-3.168;2023-05-23T00:07:29;101824.57;;;11.04;54.13
73566;BME280;61846;52.970;-3.168;2023-05-23T00:09:55;101824.38;;;10.62;54.78
73566;BME280;61846;52.970;-3.168;2023-05-23T00:12:20;101822.10;;;10.73;54.84
73566;BME280;61846;52.970;-3.168;2023-05-23T00:14:46;101817.73;;;10.74;54.70
73566;BME280;61846;52.970;-3.168;2023-05-23T00:17:11;101815.76;;;10.21;55.88
73566;BME280;61846;52.970;-3.168;2023-05-23T00:19:37;101812.42;;;11.35;53.23
73566;BME280;61846;52.970;-3.168;2023-05-23T00:22:02;101809.90;;;11.28;53.21
73566;BME280;61846;52.970;-3.168;2023-05-23T00:24:27;101814.22;;;11.68;50.94
73566;BME280;61846;52.970;-3.168;2023-05-23T00:26:53;101810.48;;;12.16;50.27
73566;BME280;61846;52.970;-3.168;2023-05-23T00:29:19;101807.36;;;11.10;52.47
73566;BME280;61846;52.970;-3.168;2023-05-23T00:31:45;101801.53;;;11.01;52.40
73566;BME280;61846;52.970;-3.168;2023-05-23T00:34:10;101803.44;;;11.38;51.23
73566;BME280;61846;52.970;-3.168;2023-05-23T00:36:35;101804.22;;;11.67;50.46
73566;BME280;61846;52.970;-3.168;2023-05-23T00:39:01;101809.33;;;11.85;50.69
73566;BME280;61846;52.970;-3.168;2023-05-23T00:41:26;101808.36;;;11.25;52.17
73566;BME280;61846;52.970;-3.168;2023-05-23T00:43:52;101812.31;;;11.38;52.29
73566;BME280;61846;52.970;-3.168;2023-05-23T00:46:18;101816.15;;;10.97;53.91
73566;BME280;61846;52.970;-3.168;2023-05-23T00:48:44;101811.29;;;10.93;53.29
73566;BME280;61846;52.970;-3.168;2023-05-23T00:51:09;101810.32;;;11.43;51.86
73566;BME280;61846;52.970;-3.168;2023-05-23T00:53:34;101809.67;;;11.12;53.34
73566;BME280;61846;52.970;-3.168;2023-05-23T00:56:00;101813.43;;;10.96;53.16
73566;BME280;61846;52.970;-3.168;2023-05-23T00:58:26;101809.94;;;11.45;52.35
73566;BME280;61846;52.970;-3.168;2023-05-23T01:00:51;101812.24;;;11.45;52.53
73566;BME280;61846;52.970;-3.168;2023-05-23T01:03:16;101812.76;;;10.79;54.24
73566;BME280;61846;52.970;-3.168;2023-05-23T01:05:42;101815.09;;;11.25;52.98
73566;BME280;61846;52.970;-3.168;2023-05-23T01:08:07;101814.28;;;11.75;51.48
73566;BME280;61846;52.970;-3.168;2023-05-23T01:10:32;101819.05;;;11.37;51.74
73566;BME280;61846;52.970;-3.168;2023-05-23T01:13:08;101823.61;;;10.49;54.37
73566;BME280;61846;52.970;-3.168;2023-05-23T01:15:28;101824.44;;;10.81;55.02
73566;BME280;61846;52.970;-3.168;2023-05-23T01:17:54;101827.70;;;10.77;54.57
73566;BME280;61846;52.970;-3.168;2023-05-23T01:20:18;101826.45;;;11.24;53.24
73566;BME280;61846;52.970;-3.168;2023-05-23T01:22:53;101824.92;;;11.20;52.60
73566;BME280;61846;52.970;-3.168;2023-05-23T01:25:12;101827.82;;;11.52;51.31
73566;BME280;61846;52.970;-3.168;2023-05-23T01:27:43;101828.92;;;12.28;50.62
73566;BME280;61846;52.970;-3.168;2023-05-23T01:29:57;101829.68;;;12.04;49.95
73566;BME280;61846;52.970;-3.168;2023-05-23T01:32:24;101829.51;;;11.99;49.59
73566;BME280;61846;52.970;-3.168;2023-05-23T01:34:48;101825.62;;;12.32;49.00
73566;BME280;61846;52.970;-3.168;2023-05-23T01:37:13;101822.37;;;12.46;48.52
73566;BME280;61846;52.970;-3.168;2023-05-23T01:39:39;101823.88;;;12.29;49.17
73566;BME280;61846;52.970;-3.168;2023-05-23T01:42:05;101826.74;;;12.17;49.32
73566;BME280;61846;52.970;-3.168;2023-05-23T01:44:30;101826.53;;;11.99;49.74
73566;BME280;61846;52.970;-3.168;2023-05-23T01:46:55;101822.64;;;12.61;48.22
73566;BME280;61846;52.970;-3.168;2023-05-23T01:49:22;101829.32;;;11.65;50.25
73566;BME280;61846;52.970;-3.168;2023-05-23T01:51:47;101830.18;;;12.15;48.42
73566;BME280;61846;52.970;-3.168;2023-05-23T01:54:13;101834.04;;;13.02;46.87
73566;BME280;61846;52.970;-3.168;2023-05-23T01:56:37;101835.30;;;13.61;45.80
73566;BME280;61846;52.970;-3.168;2023-05-23T01:59:03;101841.03;;;12.56;47.31
73566;BME280;61846;52.970;-3.168;2023-05-23T02:01:28;101841.26;;;12.15;48.08
73566;BME280;61846;52.970;-3.168;2023-05-23T02:03:53;101840.36;;;13.00;47.06
73566;BME280;61846;52.970;-3.168;2023-05-23T02:06:19;101838.57;;;12.74;47.80
73566;BME280;61846;52.970;-3.168;2023-05-23T02:08:45;101838.02;;;12.99;47.20
73566;BME280;61846;52.970;-3.168;2023-05-23T02:11:10;101842.48;;;12.74;47.43
73566;BME280;61846;52.970;-3.168;2023-05-23T02:13:35;101845.81;;;13.27;46.74
73566;BME280;61846;52.970;-3.168;2023-05-23T02:16:01;101841.34;;;13.29;46.31
73566;BME280;61846;52.970;-3.168;2023-05-23T02:18:27;101841.59;;;13.70;45.72
73566;BME280;61846;52.970;-3.168;2023-05-23T02:20:52;101845.51;;;12.72;47.44
73566;BME280;61846;52.970;-3.168;2023-05-23T02:23:18;101845.89;;;13.05;46.02
73566;BME280;61846;52.970;-3.168;2023-05-23T02:25:43;101841.74;;;13.54;45.35
73566;BME280;61846;52.970;-3.168;2023-05-23T02:28:08;101840.32;;;13.83;44.43
73566;BME280;61846;52.970;-3.168;2023-05-23T02:30:34;101837.51;;;13.70;44.40
73566;BME280;61846;52.970;-3.168;2023-05-23T02:33:04;101844.14;;;13.19;46.09
73566;BME280;61846;52.970;-3.168;2023-05-23T02:35:25;101839.67;;;13.61;45.29
73566;BME280;61846;52.970;-3.168;2023-05-23T02:37:50;101839.80;;;13.71;45.03
73566;BME280;61846;52.970;-3.168;2023-05-23T02:40:16;101842.69;;;13.45;44.99
73566;BME280;61846;52.970;-3.168;2023-05-23T02:42:41;101845.35;;;13.38;46.08
73566;BME280;61846;52.970;-3.168;2023-05-23T02:45:07;101844.07;;;13.14;46.74
73566;BME280;61846;52.970;-3.168;2023-05-23T02:47:32;101848.66;;;12.37;47.86
73566;BME280;61846;52.970;-3.168;2023-05-23T02:49:57;101846.29;;;12.17;48.90
73566;BME280;61846;52.970;-3.168;2023-05-23T02:52:24;101848.72;;;12.76;47.51
73566;BME280;61846;52.970;-3.168;2023-05-23T02:54:48;101843.75;;;12.90;47.54
73566;BME280;61846;52.970;-3.168;2023-05-23T02:57:14;101842.63;;;12.96;47.49
73566;BME280;61846;52.970;-3.168;2023-05-23T02:59:40;101845.22;;;11.82;50.02
73566;BME280;61846;52.970;-3.168;2023-05-23T03:02:05;101843.07;;;13.14;47.73
73566;BME280;61846;52.970;-3.168;2023-05-23T03:04:31;101836.43;;;13.80;45.93
73566;BME280;61846;52.970;-3.168;2023-05-23T03:06:57;101839.70;;;12.92;46.67
73566;BME280;61846;52.970;-3.168;2023-05-23T03:09:22;101842.98;;;12.81;47.30
73566;BME280;61846;52.970;-3.168;2023-05-23T03:11:48;101842.21;;;12.83;47.16
73566;BME280;61846;52.970;-3.168;2023-05-23T03:14:13;101840.30;;;13.34;45.89
73566;BME280;61846;52.970;-3.168;2023-05-23T03:16:39;101842.79;;;12.93;46.54
73566;BME280;61846;52.970;-3.168;2023-05-23T03:19:05;101840.50;;;13.01;46.36
73566;BME280;61846;52.970;-3.168;2023-05-23T03:21:31;101842.97;;;12.99;46.41
73566;BME280;61846;52.970;-3.168;2023-05-23T03:23:55;101840.48;;;13.07;47.37
73566;BME280;61846;52.970;-3.168;2023-05-23T03:26:20;101845.26;;;12.77;47.52
73566;BME280;61846;52.970;-3.168;2023-05-23T03:28:46;101847.24;;;13.16;46.36
73566;BME280;61846;52.970;-3.168;2023-05-23T03:31:11;101851.37;;;13.03;46.46
73566;BME280;61846;52.970;-3.168;2023-05-23T03:33:36;101849.47;;;13.53;45.84
73566;BME280;61846;52.970;-3.168;2023-05-23T03:36:02;101853.27;;;13.44;45.64
73566;BME280;61846;52.970;-3.168;2023-05-23T03:38:27;101854.43;;;13.99;44.71
73566;BME280;61846;52.970;-3.168;2023-05-23T03:40:52;101855.00;;;14.35;44.22
73566;BME280;61846;52.970;-3.168;2023-05-23T03:43:18;101854.72;;;14.00;44.83
73566;BME280;61846;52.970;-3.168;2023-05-23T03:45:43;101854.59;;;13.14;46.05
73566;BME280;61846;52.970;-3.168;2023-05-23T03:48:09;101850.68;;;13.06;47.30
73566;BME280;61846;52.970;-3.168;2023-05-23T03:50:35;101845.86;;;13.45;46.09
73566;BME280;61846;52.970;-3.168;2023-05-23T03:53:00;101847.10;;;13.16;46.81
73566;BME280;61846;52.970;-3.168;2023-05-23T03:55:26;101847.43;;;12.67;47.84
73566;BME280;61846;52.970;-3.168;2023-05-23T03:57:51;101845.44;;;13.07;47.14
73566;BME280;61846;52.970;-3.168;2023-05-23T04:00:17;101842.00;;;12.70;47.67
73566;BME280;61846;52.970;-3.168;2023-05-23T04:02:41;101842.67;;;13.23;47.60
73566;BME280;61846;52.970;-3.168;2023-05-23T04:05:07;101845.79;;;13.38;45.96
73566;BME280;61846;52.970;-3.168;2023-05-23T04:07:32;101850.95;;;12.99;47.07
73566;BME280;61846;52.970;-3.168;2023-05-23T04:09:58;101850.91;;;13.26;46.65
73566;BME280;61846;52.970;-3.168;2023-05-23T04:12:23;101852.43;;;13.04;46.78
73566;BME280;61846;52.970;-3.168;2023-05-23T04:14:49;101855.66;;;12.66;47.65
73566;BME280;61846;52.970;-3.168;2023-05-23T04:17:14;101856.89;;;12.98;47.65
73566;BME280;61846;52.970;-3.168;2023-05-23T04:19:39;101857.04;;;12.93;47.70
73566;BME280;61846;52.970;-3.168;2023-05-23T04:22:05;101853.95;;;12.04;49.27
73566;BME280;61846;52.970;-3.168;2023-05-23T04:24:30;101853.44;;;12.43;49.36
73566;BME280;61846;52.970;-3.168;2023-05-23T04:26:56;101850.20;;;12.59;48.61
73566;BME280;61846;52.970;-3.168;2023-05-23T04:29:22;101851.38;;;12.31;48.74
73566;BME280;61846;52.970;-3.168;2023-05-23T04:31:47;101859.47;;;12.69;47.93
73566;BME280;61846;52.970;-3.168;2023-05-23T04:34:13;101861.84;;;12.25;49.74
73566;BME280;61846;52.970;-3.168;2023-05-23T04:36:38;101864.48;;;11.93;49.72
73566;BME280;61846;52.970;-3.168;2023-05-23T04:39:03;101865.81;;;12.23;49.64
73566;BME280;61846;52.970;-3.168;2023-05-23T04:41:29;101866.74;;;11.87;50.71
73566;BME280;61846;52.970;-3.168;2023-05-23T04:43:55;101865.70;;;11.39;52.18
73566;BME280;61846;52.970;-3.168;2023-05-23T04:46:20;101870.08;;;11.37;52.07
73566;BME280;61846;52.970;-3.168;2023-05-23T04:48:46;101872.14;;;11.21;53.05
73566;BME280;61846;52.970;-3.168;2023-05-23T04:51:11;101869.48;;;11.28;53.07
73566;BME280;61846;52.970;-3.168;2023-05-23T04:53:36;101871.77;;;11.26;52.29
73566;BME280;61846;52.970;-3.168;2023-05-23T04:56:02;101872.17;;;10.83;54.41
73566;BME280;61846;52.970;-3.168;2023-05-23T04:58:27;101873.71;;;10.67;55.02
73566;BME280;61846;52.970;-3.168;2023-05-23T05:00:53;101872.81;;;10.28;57.39
73566;BME280;61846;52.970;-3.168;2023-05-23T05:03:18;101871.75;;;10.57;55.43
73566;BME280;61846;52.970;-3.168;2023-05-23T05:05:44;101876.56;;;10.59;55.49
73566;BME280;61846;52.970;-3.168;2023-05-23T05:08:09;101876.98;;;11.37;53.02
73566;BME280;61846;52.970;-3.168;2023-05-23T05:10:35;101883.07;;;10.91;54.53
73566;BME280;61846;52.970;-3.168;2023-05-23T05:13:01;101879.00;;;11.93;52.19
73566;BME280;61846;52.970;-3.168;2023-05-23T05:15:26;101881.66;;;12.28;49.81
73566;BME280;61846;52.970;-3.168;2023-05-23T05:17:51;101887.18;;;12.20;49.89
73566;BME280;61846;52.970;-3.168;2023-05-23T05:20:17;101889.07;;;12.03;50.29
73566;BME280;61846;52.970;-3.168;2023-05-23T05:22:42;101886.97;;;12.12;50.54
73566;BME280;61846;52.970;-3.168;2023-05-23T05:25:09;101883.68;;;13.23;48.23
73566;BME280;61846;52.970;-3.168;2023-05-23T05:27:34;101882.18;;;12.71;48.54
73566;BME280;61846;52.970;-3.168;2023-05-23T05:29:59;101879.86;;;13.51;47.43
73566;BME280;61846;52.970;-3.168;2023-05-23T05:32:25;101881.10;;;13.22;48.02
73566;BME280;61846;52.970;-3.168;2023-05-23T05:34:50;101889.39;;;12.19;49.94
73566;BME280;61846;52.970;-3.168;2023-05-23T05:37:16;101888.39;;;12.62;49.73
73566;BME280;61846;52.970;-3.168;2023-05-23T05:39:41;101886.44;;;12.28;50.10
73566;BME280;61846;52.970;-3.168;2023-05-23T05:42:06;101885.91;;;12.76;49.21
73566;BME280;61846;52.970;-3.168;2023-05-23T05:44:32;101885.67;;;13.18;47.39
73566;BME280;61846;52.970;-3.168;2023-05-23T05:46:57;101878.04;;;13.28;46.87
73566;BME280;61846;52.970;-3.168;2023-05-23T05:49:23;101867.79;;;14.06;46.32
73566;BME280;61846;52.970;-3.168;2023-05-23T05:51:48;101868.39;;;13.91;45.60
73566;BME280;61846;52.970;-3.168;2023-05-23T05:54:13;101866.15;;;14.07;45.23
73566;BME280;61846;52.970;-3.168;2023-05-23T05:56:39;101861.34;;;14.14;45.89
73566;BME280;61846;52.970;-3.168;2023-05-23T05:59:04;101863.14;;;13.14;47.19
73566;BME280;61846;52.970;-3.168;2023-05-23T06:01:30;101861.24;;;13.15;48.41
73566;BME280;61846;52.970;-3.168;2023-05-23T06:03:55;101866.48;;;12.82;48.67
73566;BME280;61846;52.970;-3.168;2023-05-23T06:06:21;101870.89;;;13.54;47.89
73566;BME280;61846;52.970;-3.168;2023-05-23T06:08:46;101874.00;;;12.85;49.05
73566;BME280;61846;52.970;-3.168;2023-05-23T06:11:11;101872.91;;;13.20;47.99
73566;BME280;61846;52.970;-3.168;2023-05-23T06:13:37;101871.64;;;13.08;48.38
73566;BME280;61846;52.970;-3.168;2023-05-23T06:16:03;101874.09;;;13.13;48.67
73566;BME280;61846;52.970;-3.168;2023-05-23T06:18:27;101876.56;;;13.10;48.26
73566;BME280;61846;52.970;-3.168;2023-05-23T06:20:55;101875.76;;;13.26;47.97
73566;BME280;61846;52.970;-3.168;2023-05-23T06:23:25;101872.66;;;13.89;46.87
73566;BME280;61846;52.970;-3.168;2023-05-23T06:25:44;101868.99;;;14.16;45.54
73566;BME280;61846;52.970;-3.168;2023-05-23T06:28:09;101869.46;;;13.97;45.66
73566;BME280;61846;52.970;-3.168;2023-05-23T06:30:34;101861.12;;;14.09;45.89
73566;BME280;61846;52.970;-3.168;2023-05-23T06:33:00;101861.66;;;14.83;44.03
73566;BME280;61846;52.970;-3.168;2023-05-23T06:35:26;101857.96;;;14.23;44.85
73566;BME280;61846;52.970;-3.168;2023-05-23T06:37:51;101854.71;;;13.51;46.62
73566;BME280;61846;52.970;-3.168;2023-05-23T06:40:16;101853.24;;;13.89;45.46
73566;BME280;61846;52.970;-3.168;2023-05-23T06:42:42;101853.77;;;13.14;46.86
73566;BME280;61846;52.970;-3.168;2023-05-23T06:45:08;101851.97;;;12.52;48.89
73566;BME280;61846;52.970;-3.168;2023-05-23T06:47:32;101857.78;;;13.83;46.17
73566;BME280;61846;52.970;-3.168;2023-05-23T06:49:58;101859.26;;;14.00;45.43
73566;BME280;61846;52.970;-3.168;2023-05-23T06:52:24;101860.63;;;14.14;45.46
73566;BME280;61846;52.970;-3.168;2023-05-23T06:54:50;101857.69;;;13.64;46.01
73566;BME280;61846;52.970;-3.168;2023-05-23T06:57:15;101862.51;;;12.95;48.15
73566;BME280;61846;52.970;-3.168;2023-05-23T06:59:40;101860.63;;;13.54;46.54
73566;BME280;61846;52.970;-3.168;2023-05-23T07:02:06;101860.21;;;13.85;45.61
73566;BME280;61846;52.970;-3.168;2023-05-23T07:04:31;101863.07;;;13.71;46.63
73566;BME280;61846;52.970;-3.168;2023-05-23T07:06:56;101865.00;;;13.54;46.73
73566;BME280;61846;52.970;-3.168;2023-05-23T07:09:22;101859.35;;;13.84;45.92
73566;BME280;61846;52.970;-3.168;2023-05-23T07:11:47;101863.48;;;14.55;44.99
73566;BME280;61846;52.970;-3.168;2023-05-23T07:14:14;101870.82;;;14.21;44.65
73566;BME280;61846;52.970;-3.168;2023-05-23T07:16:38;101871.59;;;13.61;45.68
73566;BME280;61846;52.970;-3.168;2023-05-23T07:19:03;101871.55;;;13.81;45.62
73566;BME280;61846;52.970;-3.168;2023-05-23T07:21:29;101873.96;;;13.56;46.73
73566;BME280;61846;52.970;-3.168;2023-05-23T07:23:54;101876.86;;;13.69;46.27
73566;BME280;61846;52.970;-3.168;2023-05-23T07:26:19;101880.35;;;14.25;45.24
73566;BME280;61846;52.970;-3.168;2023-05-23T07:28:44;101889.78;;;13.37;47.05
73566;BME280;61846;52.970;-3.168;2023-05-23T07:31:10;101890.34;;;12.81;47.81
73566;BME280;61846;52.970;-3.168;2023-05-23T07:33:35;101880.79;;;14.05;46.44
73566;BME280;61846;52.970;-3.168;2023-05-23T07:36:01;101883.03;;;13.19;47.60
73566;BME280;61846;52.970;-3.168;2023-05-23T07:38:26;101882.74;;;14.07;45.56
73566;BME280;61846;52.970;-3.168;2023-05-23T07:40:51;101888.29;;;14.07;45.55
73566;BME280;61846;52.970;-3.168;2023-05-23T07:43:17;101890.07;;;14.75;44.13
73566;BME280;61846;52.970;-3.168;2023-05-23T07:45:42;101894.96;;;14.37;44.21
73566;BME280;61846;52.970;-3.168;2023-05-23T07:48:08;101902.11;;;14.04;45.59
73566;BME280;61846;52.970;-3.168;2023-05-23T07:50:33;101905.42;;;14.17;44.98
73566;BME280;61846;52.970;-3.168;2023-05-23T07:52:58;101908.18;;;14.13;44.95
73566;BME280;61846;52.970;-3.168;2023-05-23T07:55:24;101913.38;;;14.37;44.96
73566;BME280;61846;52.970;-3.168;2023-05-23T07:57:49;101912.33;;;14.72;43.87
73566;BME280;61846;52.970;-3.168;2023-05-23T08:00:15;101909.67;;;15.19;43.51
73566;BME280;61846;52.970;-3.168;2023-05-23T08:02:40;101908.96;;;15.60;42.26
73566;BME280;61846;52.970;-3.168;2023-05-23T08:05:06;101915.64;;;15.92;42.20
73566;BME280;61846;52.970;-3.168;2023-05-23T08:07:31;101920.37;;;14.76;43.13
73566;BME280;61846;52.970;-3.168;2023-05-23T08:09:57;101918.43;;;15.29;42.77
73566;BME280;61846;52.970;-3.168;2023-05-23T08:12:23;101912.94;;;14.89;41.90
73566;BME280;61846;52.970;-3.168;2023-05-23T08:14:48;101915.59;;;15.33;42.11
73566;BME280;61846;52.970;-3.168;2023-05-23T08:17:14;101913.33;;;15.06;43.19
73566;BME280;61846;52.970;-3.168;2023-05-23T08:19:39;101907.73;;;15.44;42.32
73566;BME280;61846;52.970;-3.168;2023-05-23T08:22:04;101906.88;;;14.79;44.00
73566;BME280;61846;52.970;-3.168;2023-05-23T08:24:30;101905.70;;;14.46;43.86
73566;BME280;61846;52.970;-3.168;2023-05-23T08:26:55;101901.26;;;15.02;43.40
73566;BME280;61846;52.970;-3.168;2023-05-23T08:29:21;101903.38;;;13.39;46.47
73566;BME280;61846;52.970;-3.168;2023-05-23T08:31:46;101896.94;;;13.99;46.75
73566;BME280;61846;52.970;-3.168;2023-05-23T08:34:11;101897.67;;;14.26;45.35
73566;BME280;61846;52.970;-3.168;2023-05-23T08:36:37;101897.55;;;13.16;48.08
73566;BME280;61846;52.970;-3.168;2023-05-23T08:39:03;101892.81;;;12.63;49.61
73566;BME280;61846;52.970;-3.168;2023-05-23T08:41:29;101890.65;;;13.04;50.38
73566;BME280;61846;52.970;-3.168;2023-05-23T08:43:54;101881.85;;;13.04;49.53
73566;BME280;61846;52.970;-3.168;2023-05-23T08:46:20;101873.55;;;13.95;47.28
73566;BME280;61846;52.970;-3.168;2023-05-23T08:48:50;101875.26;;;14.14;46.36
73566;BME280;61846;52.970;-3.168;2023-05-23T08:51:13;101880.11;;;14.05;45.88
73566;BME280;61846;52.970;-3.168;2023-05-23T08:53:37;101882.29;;;14.08;45.17
73566;BME280;61846;52.970;-3.168;2023-05-23T08:56:02;101884.25;;;14.77;43.80
73566;BME280;61846;52.970;-3.168;2023-05-23T08:58:28;101887.56;;;13.98;45.51
73566;BME280;61846;52.970;-3.168;2023-05-23T09:00:53;101889.17;;;15.10;43.34
73566;BME280;61846;52.970;-3.168;2023-05-23T09:03:18;101891.83;;;14.64;43.96
73566;BME280;61846;52.970;-3.168;2023-05-23T09:05:43;101893.47;;;15.16;42.54
73566;BME280;61846;52.970;-3.168;2023-05-23T09:08:08;101898.35;;;15.12;42.37
73566;BME280;61846;52.970;-3.168;2023-05-23T09:10:33;101904.00;;;14.28;45.21
73566;BME280;61846;52.970;-3.168;2023-05-23T09:12:59;101899.07;;;15.26;44.73
73566;BME280;61846;52.970;-3.168;2023-05-23T09:15:25;101900.79;;;15.00;43.40
73566;BME280;61846;52.970;-3.168;2023-05-23T09:17:50;101902.67;;;15.22;43.34
73566;BME280;61846;52.970;-3.168;2023-05-23T09:20:16;101905.80;;;14.91;43.10
73566;BME280;61846;52.970;-3.168;2023-05-23T09:22:45;101902.34;;;14.76;43.25
73566;BME280;61846;52.970;-3.168;2023-05-23T09:25:07;101903.61;;;14.25;44.46
73566;BME280;61846;52.970;-3.168;2023-05-23T09:27:31;101904.23;;;14.73;44.38
73566;BME280;61846;52.970;-3.168;2023-05-23T09:29:56;101901.44;;;15.14;43.14
73566;BME280;61846;52.970;-3.168;2023-05-23T09:32:22;101902.48;;;14.73;43.00
73566;BME280;61846;52.970;-3.168;2023-05-23T09:34:54;101900.14;;;15.28;42.92
73566;BME280;61846;52.970;-3.168;2023-05-23T09:37:14;101901.65;;;15.45;42.67
73566;BME280;61846;52.970;-3.168;2023-05-23T09:39:38;101900.95;;;15.71;42.46
73566;BME280;61846;52.970;-3.168;2023-05-23T09:42:04;101902.40;;;15.82;41.64
73566;BME280;61846;52.970;-3.168;2023-05-23T09:44:29;101907.49;;;15.40;41.16
73566;BME280;61846;52.970;-3.168;2023-05-23T09:46:54;101908.45;;;16.03;40.60
73566;BME280;61846;52.970;-3.168;2023-05-23T09:49:20;101905.28;;;15.65;41.65
73566;BME280;61846;52.970;-3.168;2023-05-23T09:51:56;101900.94;;;15.57;40.61
73566;BME280;61846;52.970;-3.168;2023-05-23T09:54:11;101900.79;;;14.89;41.78
73566;BME280;61846;52.970;-3.168;2023-05-23T09:56:39;101899.30;;;15.63;41.39
73566;BME280;61846;52.970;-3.168;2023-05-23T09:59:01;101901.55;;;15.12;41.72
73566;BME280;61846;52.970;-3.168;2023-05-23T10:01:29;101904.51;;;15.27;41.80
73566;BME280;61846;52.970;-3.168;2023-05-23T10:03:53;101904.47;;;15.50;41.19
73566;BME280;61846;52.970;-3.168;2023-05-23T10:06:24;101905.32;;;15.29;41.79
73566;BME280;61846;52.970;-3.168;2023-05-23T10:08:47;101902.93;;;16.22;41.72
73566;BME280;61846;52.970;-3.168;2023-05-23T10:13:35;101904.55;;;14.95;41.67
73566;BME280;61846;52.970;-3.168;2023-05-23T10:16:06;101904.37;;;15.40;41.50
73566;BME280;61846;52.970;-3.168;2023-05-23T10:18:28;101899.06;;;15.63;40.60
73566;BME280;61846;52.970;-3.168;2023-05-23T10:20:53;101895.09;;;15.72;40.02
73566;BME280;61846;52.970;-3.168;2023-05-23T10:23:16;101890.20;;;15.88;39.34
73566;BME280;61846;52.970;-3.168;2023-05-23T10:25:43;101896.06;;;14.48;42.67
73566;BME280;61846;52.970;-3.168;2023-05-23T10:28:08;101891.56;;;15.91;41.88
73566;BME280;61846;52.970;-3.168;2023-05-23T10:30:33;101892.24;;;15.71;40.15
73566;BME280;61846;52.970;-3.168;2023-05-23T10:32:58;101890.02;;;16.05;40.20
73566;BME280;61846;52.970;-3.168;2023-05-23T10:35:31;101888.03;;;15.13;40.39
73566;BME280;61846;52.970;-3.168;2023-05-23T10:37:55;101890.47;;;15.89;41.52
73566;BME280;61846;52.970;-3.168;2023-05-23T10:40:21;101889.74;;;16.12;39.50
73566;BME280;61846;52.970;-3.168;2023-05-23T10:42:47;101887.71;;;16.38;38.25
73566;BME280;61846;52.970;-3.168;2023-05-23T10:45:16;101882.80;;;15.84;39.42
73566;BME280;61846;52.970;-3.168;2023-05-23T10:47:29;101875.74;;;16.56;36.59
73566;BME280;61846;52.970;-3.168;2023-05-23T10:49:55;101877.37;;;15.97;39.55
73566;BME280;61846;52.970;-3.168;2023-05-23T10:52:38;101880.16;;;16.75;38.18
73566;BME280;61846;52.970;-3.168;2023-05-23T10:54:49;101874.40;;;17.64;37.37
73566;BME280;61846;52.970;-3.168;2023-05-23T10:57:15;101874.17;;;18.16;38.00
73566;BME280;61846;52.970;-3.168;2023-05-23T10:59:38;101875.37;;;18.11;34.65
73566;BME280;61846;52.970;-3.168;2023-05-23T11:02:05;101879.75;;;18.14;34.02
73566;BME280;61846;52.970;-3.168;2023-05-23T11:04:28;101883.35;;;17.51;34.56
73566;BME280;61846;52.970;-3.168;2023-05-23T11:06:54;101883.97;;;17.43;36.11
73566;BME280;61846;52.970;-3.168;2023-05-23T11:09:19;101884.27;;;17.05;38.93
73566;BME280;61846;52.970;-3.168;2023-05-23T11:11:54;101884.41;;;17.04;36.86
73566;BME280;61846;52.970;-3.168;2023-05-23T11:14:09;101889.68;;;17.73;38.74
73566;BME280;61846;52.970;-3.168;2023-05-23T11:16:40;101887.90;;;18.39;37.57
73566;BME280;61846;52.970;-3.168;2023-05-23T11:19:20;101885.26;;;18.91;36.54
73566;BME280;61846;52.970;-3.168;2023-05-23T11:21:28;101884.69;;;19.63;36.59
73566;BME280;61846;52.970;-3.168;2023-05-23T11:23:53;101890.63;;;19.36;34.20
73566;BME280;61846;52.970;-3.168;2023-05-23T11:26:29;101889.40;;;20.01;33.57
73566;BME280;61846;52.970;-3.168;2023-05-23T11:31:07;101877.66;;;19.74;31.90
73566;BME280;61846;52.970;-3.168;2023-05-23T11:33:31;101881.05;;;20.28;32.05
73566;BME280;61846;52.970;-3.168;2023-05-23T11:35:56;101877.72;;;20.01;30.90
73566;BME280;61846;52.970;-3.168;2023-05-23T11:38:22;101877.97;;;20.53;31.63
73566;BME280;61846;52.970;-3.168;2023-05-23T11:40:47;101879.65;;;20.53;29.92
73566;BME280;61846;52.970;-3.168;2023-05-23T11:43:14;101881.68;;;19.32;33.45
73566;BME280;61846;52.970;-3.168;2023-05-23T11:45:38;101876.40;;;20.69;31.86
73566;BME280;61846;52.970;-3.168;2023-05-23T11:48:05;101879.12;;;20.63;30.65
73566;BME280;61846;52.970;-3.168;2023-05-23T11:50:28;101875.40;;;20.03;31.04
73566;BME280;61846;52.970;-3.168;2023-05-23T11:52:54;101883.84;;;20.13;30.68
73566;BME280;61846;52.970;-3.168;2023-05-23T11:55:20;101891.84;;;20.97;28.79
73566;BME280;61846;52.970;-3.168;2023-05-23T11:57:44;101889.86;;;21.29;29.26
73566;BME280;61846;52.970;-3.168;2023-05-23T12:00:11;101886.92;;;20.84;30.08
73566;BME280;61846;52.970;-3.168;2023-05-23T12:02:38;101882.05;;;20.47;32.05
73566;BME280;61846;52.970;-3.168;2023-05-23T12:05:06;101873.44;;;20.21;30.72
73566;BME280;61846;52.970;-3.168;2023-05-23T12:07:26;101869.25;;;19.33;31.05
73566;BME280;61846;52.970;-3.168;2023-05-23T12:09:54;101869.17;;;19.82;32.63
73566;BME280;61846;52.970;-3.168;2023-05-23T12:12:16;101873.99;;;19.67;33.27
73566;BME280;61846;52.970;-3.168;2023-05-23T12:14:42;101869.45;;;20.59;28.93
73566;BME280;61846;52.970;-3.168;2023-05-23T12:17:07;101872.25;;;20.30;29.34
73566;BME280;61846;52.970;-3.168;2023-05-23T12:19:34;101872.28;;;20.42;29.12
73566;BME280;61846;52.970;-3.168;2023-05-23T12:22:04;101869.31;;;21.39;30.15
73566;BME280;61846;52.970;-3.168;2023-05-23T12:24:24;101862.79;;;21.38;29.62
73566;BME280;61846;52.970;-3.168;2023-05-23T12:26:50;101862.66;;;21.38;28.30
73566;BME280;61846;52.970;-3.168;2023-05-23T12:29:14;101861.81;;;21.48;28.51
73566;BME280;61846;52.970;-3.168;2023-05-23T12:31:39;101867.32;;;21.43;27.06
73566;BME280;61846;52.970;-3.168;2023-05-23T12:34:05;101868.73;;;21.19;28.24